sensor_id;sensor_type;location;lat;lon;timestamp;P1;durP1;ratioP1;P2;durP2;ratioP2
74791;SDS011;63319;46.046;17.802;2023-02-28T00:02:58;8.53;;;4.33;;
74791;SDS011;63319;46.046;17.802;2023-02-28T00:06:02;9.20;;;4.90;;
74791;SDS011;63319;46.046;17.802;2023-02-28T00:09:06;8.10;;;4.72;;
74791;SDS011;63319;46.046;17.802;2023-02-28T00:12:09;9.88;;;5.13;;
74791;SDS011;63319;46.046;17.802;2023-02-28T00:15:12;9.90;;;4.87;;
74791;SDS011;63319;46.046;17.802;2023-02-28T00:18:16;10.10;;;4.57;;
74791;SDS011;63319;46.046;17.802;2023-02-28T00:21:19;9.10;;;4.80;;
74791;SDS011;63319;46.046;17.802;2023-02-28T00:24:22;9.32;;;4.53;;
74791;SDS011;63319;46.046;17.802;2023-02-28T00:27:25;8.00;;;4.50;;
74791;SDS011;63319;46.046;17.802;2023-02-28T00:30:32;8.67;;;5.23;;
74791;SDS011;63319;46.046;17.802;2023-02-28T00:33:34;7.93;;;5.00;;
74791;SDS011;63319;46.046;17.802;2023-02-28T00:36:37;8.05;;;4.45;;
74791;SDS011;63319;46.046;17.802;2023-02-28T00:39:40;8.25;;;4.40;;
74791;SDS011;63319;46.046;17.802;2023-02-28T00:42:43;8.90;;;5.15;;
74791;SDS011;63319;46.046;17.802;2023-02-28T00:45:47;8.83;;;4.43;;
74791;SDS011;63319;46.046;17.802;2023-02-28T00:48:50;8.87;;;4.53;;
74791;SDS011;63319;46.046;17.802;2023-02-28T00:51:53;7.68;;;4.43;;
74791;SDS011;63319;46.046;17.802;2023-02-28T00:54:57;8.20;;;4.80;;
74791;SDS011;63319;46.046;17.802;2023-02-28T00:58:00;8.90;;;4.50;;
74791;SDS011;63319;46.046;17.802;2023-02-28T01:01:03;8.17;;;4.50;;
74791;SDS011;63319;46.046;17.802;2023-02-28T01:04:06;7.60;;;4.60;;
74791;SDS011;63319;46.046;17.802;2023-02-28T01:07:10;9.02;;;4.38;;
74791;SDS011;63319;46.046;17.802;2023-02-28T01:10:14;8.32;;;4.20;;
74791;SDS011;63319;46.046;17.802;2023-02-28T01:13:18;8.10;;;4.07;;
74791;SDS011;63319;46.046;17.802;2023-02-28T01:16:21;7.50;;;4.13;;
74791;SDS011;63319;46.046;17.802;2023-02-28T01:19:25;8.37;;;4.23;;
74791;SDS011;63319;46.046;17.802;2023-02-28T01:22:28;6.95;;;4.18;;
74791;SDS011;63319;46.046;17.802;2023-02-28T01:25:33;7.50;;;4.18;;
74791;SDS011;63319;46.046;17.802;2023-02-28T01:28:40;7.75;;;4.07;;
74791;SDS011;63319;46.046;17.802;2023-02-28T01:31:43;7.47;;;4.00;;
74791;SDS011;63319;46.046;17.802;2023-02-28T01:34:46;8.63;;;4.63;;
74791;SDS011;63319;46.046;17.802;2023-02-28T01:37:49;8.40;;;4.20;;
74791;SDS011;63319;46.046;17.802;2023-02-28T01:40:53;7.53;;;4.35;;
74791;SDS011;63319;46.046;17.802;2023-02-28T01:47:00;8.57;;;4.17;;
74791;SDS011;63319;46.046;17.802;2023-02-28T01:50:04;7.73;;;4.23;;
74791;SDS011;63319;46.046;17.802;2023-02-28T01:53:11;6.82;;;4.20;;
74791;SDS011;63319;46.046;17.802;2023-02-28T01:56:23;7.95;;;4.53;;
74791;SDS011;63319;46.046;17.802;2023-02-28T01:59:40;6.95;;;4.18;;
74791;SDS011;63319;46.046;17.802;2023-02-28T02:02:52;7.87;;;3.90;;
74791;SDS011;63319;46.046;17.802;2023-02-28T02:05:58;8.07;;;3.70;;
74791;SDS011;63319;46.046;17.802;2023-02-28T02:09:03;7.65;;;4.15;;
74791;SDS011;63319;46.046;17.802;2023-02-28T02:12:21;8.43;;;4.47;;
74791;SDS011;63319;46.046;17.802;2023-02-28T02:35:56;7.03;;;4.07;;
74791;SDS011;63319;46.046;17.802;2023-02-28T02:42:41;6.95;;;4.43;;
74791;SDS011;63319;46.046;17.802;2023-02-28T02:46:41;7.78;;;4.45;;
74791;SDS011;63319;46.046;17.802;2023-02-28T02:49:42;8.80;;;4.30;;
74791;SDS011;63319;46.046;17.802;2023-02-28T02:52:50;7.00;;;4.20;;
74791;SDS011;63319;46.046;17.802;2023-02-28T02:55:59;7.80;;;4.10;;
74791;SDS011;63319;46.046;17.802;2023-02-28T02:59:07;7.88;;;4.70;;
74791;SDS011;63319;46.046;17.802;2023-02-28T03:02:12;8.57;;;4.40;;
74791;SDS011;63319;46.046;17.802;2023-02-28T03:05:19;8.55;;;4.68;;
74791;SDS011;63319;46.046;17.802;2023-02-28T03:08:26;6.93;;;4.03;;
74791;SDS011;63319;46.046;17.802;2023-02-28T03:11:30;8.27;;;4.33;;
74791;SDS011;63319;46.046;17.802;2023-02-28T03:31:21;7.88;;;4.75;;
74791;SDS011;63319;46.046;17.802;2023-02-28T03:34:31;7.75;;;4.10;;
74791;SDS011;63319;46.046;17.802;2023-02-28T03:37:37;7.93;;;4.82;;
74791;SDS011;63319;46.046;17.802;2023-02-28T03:40:45;7.57;;;4.43;;
74791;SDS011;63319;46.046;17.802;2023-02-28T03:43:56;6.83;;;3.80;;
74791;SDS011;63319;46.046;17.802;2023-02-28T03:47:10;7.95;;;4.05;;
74791;SDS011;63319;46.046;17.802;2023-02-28T03:50:24;7.85;;;4.18;;
74791;SDS011;63319;46.046;17.802;2023-02-28T03:53:37;8.02;;;4.60;;
74791;SDS011;63319;46.046;17.802;2023-02-28T03:56:56;6.67;;;4.07;;
74791;SDS011;63319;46.046;17.802;2023-02-28T04:00:14;7.30;;;4.30;;
74791;SDS011;63319;46.046;17.802;2023-02-28T04:03:24;6.85;;;3.65;;
74791;SDS011;63319;46.046;17.802;2023-02-28T04:06:27;8.57;;;4.72;;
74791;SDS011;63319;46.046;17.802;2023-02-28T04:09:34;8.60;;;4.43;;
74791;SDS011;63319;46.046;17.802;2023-02-28T04:12:37;7.07;;;3.50;;
74791;SDS011;63319;46.046;17.802;2023-02-28T04:15:40;8.17;;;4.30;;
74791;SDS011;63319;46.046;17.802;2023-02-28T04:18:43;7.75;;;4.10;;
74791;SDS011;63319;46.046;17.802;2023-02-28T04:21:47;8.32;;;4.43;;
74791;SDS011;63319;46.046;17.802;2023-02-28T04:24:52;7.22;;;3.72;;
74791;SDS011;63319;46.046;17.802;2023-02-28T04:27:56;6.97;;;3.80;;
74791;SDS011;63319;46.046;17.802;2023-02-28T04:31:01;7.43;;;3.83;;
74791;SDS011;63319;46.046;17.802;2023-02-28T04:34:06;7.93;;;4.13;;
74791;SDS011;63319;46.046;17.802;2023-02-28T04:37:09;7.55;;;4.00;;
74791;SDS011;63319;46.046;17.802;2023-02-28T04:40:15;7.50;;;4.03;;
74791;SDS011;63319;46.046;17.802;2023-02-28T04:43:18;6.73;;;3.87;;
74791;SDS011;63319;46.046;17.802;2023-02-28T04:46:21;8.33;;;4.27;;
74791;SDS011;63319;46.046;17.802;2023-02-28T04:49:25;7.45;;;3.78;;
74791;SDS011;63319;46.046;17.802;2023-02-28T04:52:28;7.68;;;4.18;;
74791;SDS011;63319;46.046;17.802;2023-02-28T04:55:31;7.10;;;4.18;;
74791;SDS011;63319;46.046;17.802;2023-02-28T04:58:34;6.47;;;3.60;;
74791;SDS011;63319;46.046;17.802;2023-02-28T05:01:37;7.67;;;3.77;;
74791;SDS011;63319;46.046;17.802;2023-02-28T05:04:39;8.30;;;4.28;;
74791;SDS011;63319;46.046;17.802;2023-02-28T05:07:42;8.23;;;4.30;;
74791;SDS011;63319;46.046;17.802;2023-02-28T05:10:45;7.53;;;4.07;;
74791;SDS011;63319;46.046;17.802;2023-02-28T05:13:48;7.13;;;3.43;;
74791;SDS011;63319;46.046;17.802;2023-02-28T05:16:51;7.77;;;3.90;;
74791;SDS011;63319;46.046;17.802;2023-02-28T05:19:54;8.38;;;4.30;;
74791;SDS011;63319;46.046;17.802;2023-02-28T05:23:15;7.40;;;4.20;;
74791;SDS011;63319;46.046;17.802;2023-02-28T05:26:20;6.72;;;3.63;;
74791;SDS011;63319;46.046;17.802;2023-02-28T05:29:23;7.10;;;3.80;;
74791;SDS011;63319;46.046;17.802;2023-02-28T05:32:26;7.70;;;4.20;;
74791;SDS011;63319;46.046;17.802;2023-02-28T05:35:29;7.45;;;3.67;;
74791;SDS011;63319;46.046;17.802;2023-02-28T05:38:32;7.68;;;3.75;;
74791;SDS011;63319;46.046;17.802;2023-02-28T05:41:41;7.15;;;3.65;;
74791;SDS011;63319;46.046;17.802;2023-02-28T05:44:44;6.43;;;3.63;;
74791;SDS011;63319;46.046;17.802;2023-02-28T05:47:47;7.50;;;3.77;;
74791;SDS011;63319;46.046;17.802;2023-02-28T05:50:50;7.15;;;3.63;;
74791;SDS011;63319;46.046;17.802;2023-02-28T05:53:53;7.32;;;3.92;;
74791;SDS011;63319;46.046;17.802;2023-02-28T05:56:56;7.18;;;3.88;;
74791;SDS011;63319;46.046;17.802;2023-02-28T05:59:59;6.60;;;3.70;;
74791;SDS011;63319;46.046;17.802;2023-02-28T06:03:02;7.60;;;3.90;;
74791;SDS011;63319;46.046;17.802;2023-02-28T06:06:05;8.55;;;3.85;;
74791;SDS011;63319;46.046;17.802;2023-02-28T06:09:08;7.13;;;3.72;;
74791;SDS011;63319;46.046;17.802;2023-02-28T06:12:11;8.20;;;3.70;;
74791;SDS011;63319;46.046;17.802;2023-02-28T06:15:14;7.57;;;4.17;;
74791;SDS011;63319;46.046;17.802;2023-02-28T06:18:18;7.63;;;4.07;;
74791;SDS011;63319;46.046;17.802;2023-02-28T06:21:20;7.80;;;4.05;;
74791;SDS011;63319;46.046;17.802;2023-02-28T06:24:24;6.78;;;3.90;;
74791;SDS011;63319;46.046;17.802;2023-02-28T06:27:31;6.15;;;3.63;;
74791;SDS011;63319;46.046;17.802;2023-02-28T06:30:36;7.10;;;4.10;;
74791;SDS011;63319;46.046;17.802;2023-02-28T06:33:40;7.07;;;3.87;;
74791;SDS011;63319;46.046;17.802;2023-02-28T06:36:43;6.50;;;3.55;;
74791;SDS011;63319;46.046;17.802;2023-02-28T06:39:46;7.22;;;3.88;;
74791;SDS011;63319;46.046;17.802;2023-02-28T06:42:49;7.25;;;3.70;;
74791;SDS011;63319;46.046;17.802;2023-02-28T06:45:55;7.60;;;4.10;;
74791;SDS011;63319;46.046;17.802;2023-02-28T06:48:59;6.93;;;3.73;;
74791;SDS011;63319;46.046;17.802;2023-02-28T06:52:02;6.82;;;3.75;;
74791;SDS011;63319;46.046;17.802;2023-02-28T06:55:06;10.00;;;5.25;;
74791;SDS011;63319;46.046;17.802;2023-02-28T06:58:10;17.38;;;10.20;;
74791;SDS011;63319;46.046;17.802;2023-02-28T07:01:21;14.40;;;9.40;;
74791;SDS011;63319;46.046;17.802;2023-02-28T07:04:26;13.40;;;8.07;;
74791;SDS011;63319;46.046;17.802;2023-02-28T07:07:28;17.95;;;9.50;;
74791;SDS011;63319;46.046;17.802;2023-02-28T07:10:32;16.40;;;8.82;;
74791;SDS011;63319;46.046;17.802;2023-02-28T07:13:35;23.08;;;13.27;;
74791;SDS011;63319;46.046;17.802;2023-02-28T07:16:38;15.43;;;9.70;;
74791;SDS011;63319;46.046;17.802;2023-02-28T07:19:45;17.30;;;9.27;;
74791;SDS011;63319;46.046;17.802;2023-02-28T07:22:49;15.95;;;7.88;;
74791;SDS011;63319;46.046;17.802;2023-02-28T07:25:58;11.67;;;7.93;;
74791;SDS011;63319;46.046;17.802;2023-02-28T07:29:01;16.08;;;7.57;;
74791;SDS011;63319;46.046;17.802;2023-02-28T07:32:07;10.95;;;7.43;;
74791;SDS011;63319;46.046;17.802;2023-02-28T07:35:10;12.00;;;7.70;;
74791;SDS011;63319;46.046;17.802;2023-02-28T07:38:12;14.02;;;9.60;;
74791;SDS011;63319;46.046;17.802;2023-02-28T07:41:16;14.15;;;9.55;;
74791;SDS011;63319;46.046;17.802;2023-02-28T07:44:23;16.50;;;9.05;;
74791;SDS011;63319;46.046;17.802;2023-02-28T07:47:26;13.70;;;5.70;;
74791;SDS011;63319;46.046;17.802;2023-02-28T07:50:29;10.93;;;6.25;;
74791;SDS011;63319;46.046;17.802;2023-02-28T07:53:33;10.38;;;5.50;;
74791;SDS011;63319;46.046;17.802;2023-02-28T07:56:36;10.27;;;5.83;;
74791;SDS011;63319;46.046;17.802;2023-02-28T07:59:39;9.37;;;5.60;;
74791;SDS011;63319;46.046;17.802;2023-02-28T08:02:42;9.98;;;5.15;;
74791;SDS011;63319;46.046;17.802;2023-02-28T08:05:45;8.13;;;4.38;;
74791;SDS011;63319;46.046;17.802;2023-02-28T08:08:48;8.10;;;4.82;;
74791;SDS011;63319;46.046;17.802;2023-02-28T08:11:51;10.07;;;5.93;;
74791;SDS011;63319;46.046;17.802;2023-02-28T08:14:54;9.13;;;4.93;;
74791;SDS011;63319;46.046;17.802;2023-02-28T08:17:57;7.40;;;4.75;;
74791;SDS011;63319;46.046;17.802;2023-02-28T08:21:05;11.57;;;4.95;;
74791;SDS011;63319;46.046;17.802;2023-02-28T08:24:11;9.87;;;4.80;;
74791;SDS011;63319;46.046;17.802;2023-02-28T08:27:14;11.30;;;6.07;;
74791;SDS011;63319;46.046;17.802;2023-02-28T08:30:17;11.88;;;4.50;;
74791;SDS011;63319;46.046;17.802;2023-02-28T08:33:21;13.20;;;4.72;;
74791;SDS011;63319;46.046;17.802;2023-02-28T08:36:25;8.48;;;4.50;;
74791;SDS011;63319;46.046;17.802;2023-02-28T08:39:33;12.13;;;4.73;;
74791;SDS011;63319;46.046;17.802;2023-02-28T08:42:37;9.83;;;5.20;;
74791;SDS011;63319;46.046;17.802;2023-02-28T08:45:39;9.43;;;4.88;;
74791;SDS011;63319;46.046;17.802;2023-02-28T08:48:42;12.02;;;4.40;;
74791;SDS011;63319;46.046;17.802;2023-02-28T08:51:46;8.98;;;4.55;;
74791;SDS011;63319;46.046;17.802;2023-02-28T08:54:49;11.10;;;4.90;;
74791;SDS011;63319;46.046;17.802;2023-02-28T08:57:54;9.83;;;4.73;;
74791;SDS011;63319;46.046;17.802;2023-02-28T09:00:57;11.70;;;4.50;;
74791;SDS011;63319;46.046;17.802;2023-02-28T09:04:00;8.85;;;4.40;;
74791;SDS011;63319;46.046;17.802;2023-02-28T09:07:04;7.78;;;4.25;;
74791;SDS011;63319;46.046;17.802;2023-02-28T09:10:08;10.17;;;4.70;;
74791;SDS011;63319;46.046;17.802;2023-02-28T09:13:13;8.87;;;5.10;;
74791;SDS011;63319;46.046;17.802;2023-02-28T09:16:16;13.20;;;4.00;;
74791;SDS011;63319;46.046;17.802;2023-02-28T09:19:20;9.05;;;4.63;;
74791;SDS011;63319;46.046;17.802;2023-02-28T09:22:23;7.85;;;4.10;;
74791;SDS011;63319;46.046;17.802;2023-02-28T09:25:26;13.93;;;4.33;;
74791;SDS011;63319;46.046;17.802;2023-02-28T09:28:29;10.13;;;4.37;;
74791;SDS011;63319;46.046;17.802;2023-02-28T09:31:32;7.88;;;3.70;;
74791;SDS011;63319;46.046;17.802;2023-02-28T09:34:35;9.07;;;4.30;;
74791;SDS011;63319;46.046;17.802;2023-02-28T09:37:39;9.23;;;4.45;;
74791;SDS011;63319;46.046;17.802;2023-02-28T09:40:47;9.03;;;3.97;;
74791;SDS011;63319;46.046;17.802;2023-02-28T09:43:53;9.43;;;4.50;;
74791;SDS011;63319;46.046;17.802;2023-02-28T09:47:07;7.72;;;4.28;;
74791;SDS011;63319;46.046;17.802;2023-02-28T09:53:32;9.32;;;4.32;;
74791;SDS011;63319;46.046;17.802;2023-02-28T09:56:38;9.70;;;3.80;;
74791;SDS011;63319;46.046;17.802;2023-02-28T10:03:24;8.00;;;4.25;;
74791;SDS011;63319;46.046;17.802;2023-02-28T10:06:33;10.00;;;3.58;;
74791;SDS011;63319;46.046;17.802;2023-02-28T10:09:52;10.65;;;3.83;;
74791;SDS011;63319;46.046;17.802;2023-02-28T10:12:58;9.33;;;4.50;;
74791;SDS011;63319;46.046;17.802;2023-02-28T10:16:08;7.93;;;4.27;;
74791;SDS011;63319;46.046;17.802;2023-02-28T10:25:30;7.32;;;4.00;;
74791;SDS011;63319;46.046;17.802;2023-02-28T10:28:33;8.53;;;3.93;;
74791;SDS011;63319;46.046;17.802;2023-02-28T10:31:36;8.13;;;4.17;;
74791;SDS011;63319;46.046;17.802;2023-02-28T10:34:40;8.98;;;4.32;;
74791;SDS011;63319;46.046;17.802;2023-02-28T10:37:44;7.95;;;4.10;;
74791;SDS011;63319;46.046;17.802;2023-02-28T10:40:49;8.90;;;4.57;;
74791;SDS011;63319;46.046;17.802;2023-02-28T10:43:53;9.07;;;4.33;;
74791;SDS011;63319;46.046;17.802;2023-02-28T10:47:17;10.67;;;4.53;;
74791;SDS011;63319;46.046;17.802;2023-02-28T10:53:52;11.75;;;4.18;;
74791;SDS011;63319;46.046;17.802;2023-02-28T10:57:14;13.85;;;4.70;;
74791;SDS011;63319;46.046;17.802;2023-02-28T11:00:20;10.87;;;3.83;;
74791;SDS011;63319;46.046;17.802;2023-02-28T11:03:30;11.17;;;4.60;;
74791;SDS011;63319;46.046;17.802;2023-02-28T11:06:37;7.97;;;4.30;;
74791;SDS011;63319;46.046;17.802;2023-02-28T11:09:41;8.68;;;4.40;;
74791;SDS011;63319;46.046;17.802;2023-02-28T11:12:57;11.15;;;4.28;;
74791;SDS011;63319;46.046;17.802;2023-02-28T11:16:03;9.67;;;4.30;;
74791;SDS011;63319;46.046;17.802;2023-02-28T11:19:15;11.33;;;4.70;;
74791;SDS011;63319;46.046;17.802;2023-02-28T11:22:43;11.73;;;4.88;;
74791;SDS011;63319;46.046;17.802;2023-02-28T11:25:47;10.07;;;4.35;;
74791;SDS011;63319;46.046;17.802;2023-02-28T11:29:02;13.10;;;4.55;;
74791;SDS011;63319;46.046;17.802;2023-02-28T11:32:18;7.77;;;3.93;;
74791;SDS011;63319;46.046;17.802;2023-02-28T11:35:24;8.47;;;4.43;;
74791;SDS011;63319;46.046;17.802;2023-02-28T11:38:32;9.95;;;4.90;;
74791;SDS011;63319;46.046;17.802;2023-02-28T11:44:45;9.70;;;5.18;;
74791;SDS011;63319;46.046;17.802;2023-02-28T11:51:35;8.93;;;4.77;;
74791;SDS011;63319;46.046;17.802;2023-02-28T11:58:34;9.48;;;5.60;;
74791;SDS011;63319;46.046;17.802;2023-02-28T12:01:47;14.13;;;5.28;;
74791;SDS011;63319;46.046;17.802;2023-02-28T12:05:17;9.20;;;5.17;;
74791;SDS011;63319;46.046;17.802;2023-02-28T12:15:05;11.60;;;5.20;;
74791;SDS011;63319;46.046;17.802;2023-02-28T12:21:59;12.47;;;4.97;;
74791;SDS011;63319;46.046;17.802;2023-02-28T12:28:43;8.95;;;4.72;;
74791;SDS011;63319;46.046;17.802;2023-02-28T12:35:25;10.65;;;5.47;;
74791;SDS011;63319;46.046;17.802;2023-02-28T12:42:03;10.97;;;5.63;;
74791;SDS011;63319;46.046;17.802;2023-02-28T12:48:32;8.70;;;5.20;;
74791;SDS011;63319;46.046;17.802;2023-02-28T12:51:44;9.75;;;5.40;;
74791;SDS011;63319;46.046;17.802;2023-02-28T13:08:03;10.02;;;5.60;;
74791;SDS011;63319;46.046;17.802;2023-02-28T13:11:23;13.93;;;5.80;;
74791;SDS011;63319;46.046;17.802;2023-02-28T13:14:37;21.07;;;5.77;;
74791;SDS011;63319;46.046;17.802;2023-02-28T13:17:40;17.35;;;5.78;;
74791;SDS011;63319;46.046;17.802;2023-02-28T13:20:47;15.15;;;5.80;;
74791;SDS011;63319;46.046;17.802;2023-02-28T13:37:00;10.50;;;5.68;;
74791;SDS011;63319;46.046;17.802;2023-02-28T13:40:36;12.35;;;5.43;;
74791;SDS011;63319;46.046;17.802;2023-02-28T13:50:14;15.70;;;5.57;;
74791;SDS011;63319;46.046;17.802;2023-02-28T13:53:27;15.27;;;5.80;;
74791;SDS011;63319;46.046;17.802;2023-02-28T14:00:40;16.67;;;5.50;;
74791;SDS011;63319;46.046;17.802;2023-02-28T14:07:41;11.82;;;5.80;;
74791;SDS011;63319;46.046;17.802;2023-02-28T14:10:49;11.73;;;4.88;;
74791;SDS011;63319;46.046;17.802;2023-02-28T14:14:04;13.10;;;5.57;;
74791;SDS011;63319;46.046;17.802;2023-02-28T14:17:13;14.93;;;5.70;;
74791;SDS011;63319;46.046;17.802;2023-02-28T14:20:18;11.77;;;5.57;;
74791;SDS011;63319;46.046;17.802;2023-02-28T14:23:35;14.90;;;5.75;;
74791;SDS011;63319;46.046;17.802;2023-02-28T14:36:49;14.23;;;5.93;;
74791;SDS011;63319;46.046;17.802;2023-02-28T14:39:54;10.82;;;5.40;;
74791;SDS011;63319;46.046;17.802;2023-02-28T14:43:00;12.07;;;4.97;;
74791;SDS011;63319;46.046;17.802;2023-02-28T14:46:07;12.63;;;5.75;;
74791;SDS011;63319;46.046;17.802;2023-02-28T14:49:18;13.30;;;5.43;;
74791;SDS011;63319;46.046;17.802;2023-02-28T14:52:24;11.77;;;5.70;;
74791;SDS011;63319;46.046;17.802;2023-02-28T14:55:31;12.55;;;5.75;;
74791;SDS011;63319;46.046;17.802;2023-02-28T14:58:37;11.80;;;5.47;;
74791;SDS011;63319;46.046;17.802;2023-02-28T15:01:42;14.10;;;5.70;;
74791;SDS011;63319;46.046;17.802;2023-02-28T15:04:52;11.90;;;5.30;;
74791;SDS011;63319;46.046;17.802;2023-02-28T15:11:17;11.27;;;5.55;;
74791;SDS011;63319;46.046;17.802;2023-02-28T15:14:21;13.25;;;5.05;;
74791;SDS011;63319;46.046;17.802;2023-02-28T15:17:26;10.85;;;5.50;;
74791;SDS011;63319;46.046;17.802;2023-02-28T15:20:29;10.17;;;5.20;;
74791;SDS011;63319;46.046;17.802;2023-02-28T15:23:34;10.80;;;4.93;;
74791;SDS011;63319;46.046;17.802;2023-02-28T15:26:46;12.43;;;5.43;;
74791;SDS011;63319;46.046;17.802;2023-02-28T15:29:53;11.07;;;4.82;;
74791;SDS011;63319;46.046;17.802;2023-02-28T15:36:24;12.27;;;5.10;;
74791;SDS011;63319;46.046;17.802;2023-02-28T15:39:31;9.03;;;5.30;;
74791;SDS011;63319;46.046;17.802;2023-02-28T15:46:08;10.02;;;4.93;;
74791;SDS011;63319;46.046;17.802;2023-02-28T15:49:19;10.88;;;5.45;;
74791;SDS011;63319;46.046;17.802;2023-02-28T15:52:33;13.53;;;5.30;;
74791;SDS011;63319;46.046;17.802;2023-02-28T15:55:40;9.73;;;5.00;;
74791;SDS011;63319;46.046;17.802;2023-02-28T15:58:43;12.52;;;5.22;;
74791;SDS011;63319;46.046;17.802;2023-02-28T16:01:46;9.95;;;4.88;;
74791;SDS011;63319;46.046;17.802;2023-02-28T16:08:15;8.77;;;4.60;;
74791;SDS011;63319;46.046;17.802;2023-02-28T16:11:19;8.67;;;5.27;;
74791;SDS011;63319;46.046;17.802;2023-02-28T16:14:24;9.15;;;5.00;;
74791;SDS011;63319;46.046;17.802;2023-02-28T16:17:35;9.60;;;4.80;;
74791;SDS011;63319;46.046;17.802;2023-02-28T16:20:41;10.57;;;5.38;;
74791;SDS011;63319;46.046;17.802;2023-02-28T16:23:47;10.37;;;5.07;;
74791;SDS011;63319;46.046;17.802;2023-02-28T16:26:50;10.37;;;4.80;;
74791;SDS011;63319;46.046;17.802;2023-02-28T16:29:56;11.82;;;5.03;;
74791;SDS011;63319;46.046;17.802;2023-02-28T16:33:04;9.75;;;5.38;;
74791;SDS011;63319;46.046;17.802;2023-02-28T16:36:09;11.95;;;4.50;;
74791;SDS011;63319;46.046;17.802;2023-02-28T16:39:23;9.40;;;5.13;;
74791;SDS011;63319;46.046;17.802;2023-02-28T16:42:27;11.03;;;5.43;;
74791;SDS011;63319;46.046;17.802;2023-02-28T16:45:31;9.30;;;5.32;;
74791;SDS011;63319;46.046;17.802;2023-02-28T16:48:36;9.20;;;4.78;;
74791;SDS011;63319;46.046;17.802;2023-02-28T16:51:39;8.45;;;4.93;;
74791;SDS011;63319;46.046;17.802;2023-02-28T16:54:43;8.40;;;5.47;;
74791;SDS011;63319;46.046;17.802;2023-02-28T16:57:51;7.10;;;4.30;;
74791;SDS011;63319;46.046;17.802;2023-02-28T17:00:58;10.23;;;5.20;;
74791;SDS011;63319;46.046;17.802;2023-02-28T17:04:01;9.52;;;4.80;;
74791;SDS011;63319;46.046;17.802;2023-02-28T17:07:11;9.40;;;5.18;;
74791;SDS011;63319;46.046;17.802;2023-02-28T17:10:24;8.87;;;4.83;;
74791;SDS011;63319;46.046;17.802;2023-02-28T17:13:28;11.97;;;5.00;;
74791;SDS011;63319;46.046;17.802;2023-02-28T17:16:33;9.88;;;4.80;;
74791;SDS011;63319;46.046;17.802;2023-02-28T17:19:38;8.68;;;4.35;;
74791;SDS011;63319;46.046;17.802;2023-02-28T17:22:45;10.00;;;4.88;;
74791;SDS011;63319;46.046;17.802;2023-02-28T17:25:51;8.27;;;5.20;;
74791;SDS011;63319;46.046;17.802;2023-02-28T17:28:59;9.53;;;4.80;;
74791;SDS011;63319;46.046;17.802;2023-02-28T17:32:03;8.82;;;5.22;;
74791;SDS011;63319;46.046;17.802;2023-02-28T17:35:24;7.43;;;4.63;;
74791;SDS011;63319;46.046;17.802;2023-02-28T17:38:31;9.20;;;4.90;;
74791;SDS011;63319;46.046;17.802;2023-02-28T17:41:34;8.33;;;5.20;;
74791;SDS011;63319;46.046;17.802;2023-02-28T17:44:43;9.00;;;4.83;;
74791;SDS011;63319;46.046;17.802;2023-02-28T17:47:47;9.55;;;5.47;;
74791;SDS011;63319;46.046;17.802;2023-02-28T17:50:55;9.20;;;4.72;;
74791;SDS011;63319;46.046;17.802;2023-02-28T17:54:02;10.35;;;5.40;;
74791;SDS011;63319;46.046;17.802;2023-02-28T17:57:10;11.40;;;5.50;;
74791;SDS011;63319;46.046;17.802;2023-02-28T18:00:19;8.20;;;5.13;;
74791;SDS011;63319;46.046;17.802;2023-02-28T18:03:26;8.32;;;5.30;;
74791;SDS011;63319;46.046;17.802;2023-02-28T18:06:34;9.32;;;5.20;;
74791;SDS011;63319;46.046;17.802;2023-02-28T18:09:49;9.43;;;5.00;;
74791;SDS011;63319;46.046;17.802;2023-02-28T18:12:54;8.23;;;4.80;;
74791;SDS011;63319;46.046;17.802;2023-02-28T18:15:58;11.17;;;5.40;;
74791;SDS011;63319;46.046;17.802;2023-02-28T18:19:03;8.57;;;5.10;;
74791;SDS011;63319;46.046;17.802;2023-02-28T18:22:20;9.02;;;4.72;;
74791;SDS011;63319;46.046;17.802;2023-02-28T18:25:34;9.82;;;4.55;;
74791;SDS011;63319;46.046;17.802;2023-02-28T18:28:43;11.90;;;5.40;;
74791;SDS011;63319;46.046;17.802;2023-02-28T18:31:53;10.13;;;6.00;;
74791;SDS011;63319;46.046;17.802;2023-02-28T18:34:58;9.27;;;5.15;;
74791;SDS011;63319;46.046;17.802;2023-02-28T18:38:07;10.32;;;5.22;;
74791;SDS011;63319;46.046;17.802;2023-02-28T18:41:15;9.52;;;5.55;;
74791;SDS011;63319;46.046;17.802;2023-02-28T18:44:20;8.30;;;5.40;;
74791;SDS011;63319;46.046;17.802;2023-02-28T18:47:24;10.27;;;5.87;;
74791;SDS011;63319;46.046;17.802;2023-02-28T18:50:37;10.98;;;6.28;;
74791;SDS011;63319;46.046;17.802;2023-02-28T18:53:45;9.07;;;5.53;;
74791;SDS011;63319;46.046;17.802;2023-02-28T18:56:49;10.15;;;5.82;;
74791;SDS011;63319;46.046;17.802;2023-02-28T18:59:53;10.77;;;6.03;;
74791;SDS011;63319;46.046;17.802;2023-02-28T19:02:57;11.40;;;5.63;;
74791;SDS011;63319;46.046;17.802;2023-02-28T19:06:03;10.13;;;5.50;;
74791;SDS011;63319;46.046;17.802;2023-02-28T19:09:07;9.50;;;5.40;;
74791;SDS011;63319;46.046;17.802;2023-02-28T19:12:12;9.15;;;5.63;;
74791;SDS011;63319;46.046;17.802;2023-02-28T19:15:16;11.10;;;5.60;;
74791;SDS011;63319;46.046;17.802;2023-02-28T19:18:20;9.70;;;5.80;;
74791;SDS011;63319;46.046;17.802;2023-02-28T19:21:23;9.45;;;5.38;;
74791;SDS011;63319;46.046;17.802;2023-02-28T19:24:28;9.10;;;5.25;;
74791;SDS011;63319;46.046;17.802;2023-02-28T19:27:32;9.90;;;5.45;;
74791;SDS011;63319;46.046;17.802;2023-02-28T19:30:39;11.43;;;5.27;;
74791;SDS011;63319;46.046;17.802;2023-02-28T19:33:53;10.47;;;5.50;;
74791;SDS011;63319;46.046;17.802;2023-02-28T19:37:01;9.40;;;5.80;;
74791;SDS011;63319;46.046;17.802;2023-02-28T19:40:08;8.82;;;4.95;;
74791;SDS011;63319;46.046;17.802;2023-02-28T19:43:13;8.30;;;5.13;;
74791;SDS011;63319;46.046;17.802;2023-02-28T19:46:18;9.37;;;5.20;;
74791;SDS011;63319;46.046;17.802;2023-02-28T19:49:22;7.73;;;4.70;;
74791;SDS011;63319;46.046;17.802;2023-02-28T19:52:28;9.48;;;5.60;;
74791;SDS011;63319;46.046;17.802;2023-02-28T19:55:34;8.27;;;5.05;;
74791;SDS011;63319;46.046;17.802;2023-02-28T19:58:43;8.13;;;4.93;;
74791;SDS011;63319;46.046;17.802;2023-02-28T20:01:50;8.63;;;5.47;;
74791;SDS011;63319;46.046;17.802;2023-02-28T20:04:58;8.53;;;5.47;;
74791;SDS011;63319;46.046;17.802;2023-02-28T20:08:03;9.48;;;5.60;;
74791;SDS011;63319;46.046;17.802;2023-02-28T20:11:10;8.05;;;4.95;;
74791;SDS011;63319;46.046;17.802;2023-02-28T20:14:18;9.30;;;5.57;;
74791;SDS011;63319;46.046;17.802;2023-02-28T20:17:25;9.33;;;5.00;;
74791;SDS011;63319;46.046;17.802;2023-02-28T20:20:32;8.47;;;5.20;;
74791;SDS011;63319;46.046;17.802;2023-02-28T20:23:40;10.07;;;5.90;;
74791;SDS011;63319;46.046;17.802;2023-02-28T20:26:52;9.15;;;5.55;;
74791;SDS011;63319;46.046;17.802;2023-02-28T20:30:00;8.73;;;5.40;;
74791;SDS011;63319;46.046;17.802;2023-02-28T20:33:07;8.67;;;5.13;;
74791;SDS011;63319;46.046;17.802;2023-02-28T20:36:12;8.43;;;4.83;;
74791;SDS011;63319;46.046;17.802;2023-02-28T20:39:17;9.13;;;5.90;;
74791;SDS011;63319;46.046;17.802;2023-02-28T20:42:21;8.65;;;5.00;;
74791;SDS011;63319;46.046;17.802;2023-02-28T20:45:24;8.63;;;5.05;;
74791;SDS011;63319;46.046;17.802;2023-02-28T20:48:28;7.87;;;4.63;;
74791;SDS011;63319;46.046;17.802;2023-02-28T20:51:33;9.10;;;5.77;;
74791;SDS011;63319;46.046;17.802;2023-02-28T20:54:41;8.90;;;5.22;;
74791;SDS011;63319;46.046;17.802;2023-02-28T20:57:45;9.55;;;5.30;;
74791;SDS011;63319;46.046;17.802;2023-02-28T21:00:50;10.18;;;5.68;;
74791;SDS011;63319;46.046;17.802;2023-02-28T21:03:55;8.53;;;5.10;;